North Fork, Nevada
Current Conditions -  °F | °C
As of 6:56 PM on Saturday 25 Oct 2014 (Local Time) from KEKO Reporting Station
Broken Clouds Broken Clouds  
Wind Chill: 61°   Ceiling: 4300
Heat Index: 61°   Visibility: 10mi
Dew Point: 29°   Wind: 17mph
Humidity: 30%   Direction: 280°W
Pressure: 29.91"   Gusts: 30mph
Location:  40.8005°N, 115.707°W
Report Text: KEKO 260156Z AUTO 28015G26KT 10SM BKN043 BKN100 16/M02 A2991 RMK AO2 PK WND 30033/0126 WSHFT 0052 SLP097 T01611017
Loading
Personal Weather Stations






























Interactive Weather Map
Tropical Storm Tracking
New forecast layout! Learn more

10-Day Weather Forecast

Advertisements
Track Severe Weather on mobile